Time;durP1;ratioP1;P1;durP2;ratioP2;P2;SDS_P1;SDS_P2;PMS_P1;PMS_P2;Temp;Humidity;BMP_temperature;BMP_pressure;BME280_temperature;BME280_humidity;BME280_pressure;Samples;Min_cycle;Max_cycle;Signal;HPM_P1;HPM_P2
2023/03/31 00:00:32;;;;;;;0.00;0.00;;;10.30;89.40;;;;;;5009332;28;20065;-63
2023/03/31 00:02:58;;;;;;;0.00;0.00;;;10.30;89.50;;;;;;5009713;28;20413;-63
2023/03/31 00:05:24;;;;;;;0.55;0.38;;;10.20;89.40;;;;;;5008908;28;20041;-64
2023/03/31 00:07:59;;;;;;;0.00;0.00;;;10.30;89.40;;;;;;5009173;28;20042;-63
2023/03/31 00:10:30;;;;;;;0.00;0.00;;;10.20;89.40;;;;;;5009866;28;20056;-63
2023/03/31 00:12:57;;;;;;;0.00;0.00;;;10.30;89.40;;;;;;5008954;28;20065;-63
2023/03/31 00:15:22;;;;;;;0.00;0.00;;;10.20;89.40;;;;;;5009356;28;20037;-63
2023/03/31 00:17:48;;;;;;;0.00;0.00;;;10.20;89.40;;;;;;5008962;28;20045;-63
2023/03/31 00:20:14;;;;;;;0.00;0.00;;;10.20;89.50;;;;;;5009305;28;20046;-63
2023/03/31 00:22:41;;;;;;;0.00;0.00;;;10.20;89.40;;;;;;5009641;28;20113;-64
2023/03/31 00:25:09;;;;;;;0.28;0.28;;;10.20;89.50;;;;;;5008955;28;20048;-63
2023/03/31 00:27:35;;;;;;;0.00;0.00;;;10.10;89.40;;;;;;5008656;28;20042;-63
2023/03/31 00:30:01;;;;;;;0.00;0.00;;;10.20;89.50;;;;;;5009084;28;20140;-64
2023/03/31 00:32:26;;;;;;;0.00;0.00;;;10.10;89.50;;;;;;5006533;28;20076;-63
2023/03/31 00:34:52;;;;;;;0.00;0.00;;;10.10;89.40;;;;;;5008996;28;20125;-64
2023/03/31 00:37:18;;;;;;;0.00;0.00;;;10.10;89.50;;;;;;5009002;28;20489;-64
2023/03/31 00:39:43;;;;;;;0.00;0.00;;;10.10;89.60;;;;;;5008460;28;20157;-64
2023/03/31 00:42:12;;;;;;;0.32;0.32;;;10.10;89.50;;;;;;5008775;28;20413;-63
2023/03/31 00:45:12;;;;;;;2.67;1.65;;;10.00;89.60;;;;;;5005264;28;20522;-63
2023/03/31 00:47:45;;;;;;;0.00;0.00;;;9.90;89.50;;;;;;4998222;28;20061;-63
2023/03/31 00:50:17;;;;;;;0.10;0.10;;;9.90;89.60;;;;;;5015326;28;20461;-63
2023/03/31 00:52:44;;;;;;;;;;;9.90;89.70;;;;;;5015014;28;20502;-63
2023/03/31 00:55:15;;;;;;;0.00;0.00;;;9.90;89.60;;;;;;5015232;28;19921;-63
2023/03/31 00:57:45;;;;;;;0.00;0.00;;;9.90;89.60;;;;;;5014485;28;20576;-63
2023/03/31 01:00:14;;;;;;;0.10;0.10;;;9.90;89.80;;;;;;5015470;28;20049;-64
2023/03/31 01:02:51;;;;;;;0.00;0.00;;;9.80;89.80;;;;;;5015262;28;20046;-63
2023/03/31 01:05:46;;;;;;;0.00;0.00;;;9.80;89.80;;;;;;5015185;28;20038;-63
2023/03/31 01:08:13;;;;;;;0.00;0.00;;;9.70;89.90;;;;;;5015495;28;20033;-63
2023/03/31 01:10:43;;;;;;;0.00;0.00;;;9.80;89.90;;;;;;5015633;28;20050;-63
2023/03/31 01:13:11;;;;;;;0.08;0.08;;;9.70;89.90;;;;;;5015535;28;20075;-63
2023/03/31 01:15:38;;;;;;;0.00;0.00;;;9.70;89.90;;;;;;4981583;28;20073;-63
2023/03/31 01:18:09;;;;;;;0.10;0.10;;;9.80;89.90;;;;;;5014780;28;20042;-63
2023/03/31 01:20:47;;;;;;;0.15;0.15;;;9.80;90.00;;;;;;5015026;28;20038;-63
2023/03/31 01:23:15;;;;;;;0.00;0.00;;;9.80;90.00;;;;;;5014870;28;20409;-64
2023/03/31 01:26:19;;;;;;;0.35;0.35;;;9.80;90.10;;;;;;4995335;28;20050;-64
2023/03/31 01:29:03;;;;;;;0.00;0.00;;;9.90;90.00;;;;;;5014363;28;20124;-64
2023/03/31 01:31:59;;;;;;;0.00;0.00;;;9.90;90.10;;;;;;4997628;28;20050;-63
2023/03/31 01:34:49;;;;;;;0.00;0.00;;;9.80;90.20;;;;;;4999364;28;20038;-63
2023/03/31 01:37:18;;;;;;;0.00;0.00;;;9.80;90.30;;;;;;4997461;28;20064;-63
2023/03/31 01:40:01;;;;;;;0.00;0.00;;;9.90;90.20;;;;;;5015009;28;20042;-64
2023/03/31 01:42:43;;;;;;;0.20;0.20;;;10.00;90.20;;;;;;5015203;28;20168;-63
2023/03/31 01:45:55;;;;;;;0.00;0.00;;;10.00;90.30;;;;;;4981362;28;20054;-63
2023/03/31 01:48:32;;;;;;;0.00;0.00;;;10.00;90.40;;;;;;5013511;28;20058;-63
2023/03/31 01:51:09;;;;;;;0.88;0.88;;;10.00;90.40;;;;;;5005330;28;20468;-64
2023/03/31 01:53:53;;;;;;;0.82;0.77;;;10.10;90.30;;;;;;5014507;28;20041;-63
2023/03/31 01:56:31;;;;;;;0.00;0.00;;;10.10;90.30;;;;;;5014748;28;20354;-63
2023/03/31 01:59:09;;;;;;;0.00;0.00;;;10.10;90.20;;;;;;5014051;28;20045;-64
2023/03/31 02:02:00;;;;;;;0.00;0.00;;;10.10;90.00;;;;;;5011632;28;20046;-64
2023/03/31 02:04:51;;;;;;;0.00;0.00;;;10.20;89.90;;;;;;5011608;28;20502;-63
2023/03/31 02:07:23;;;;;;;0.00;0.00;;;10.20;89.90;;;;;;4999709;28;20079;-63
2023/03/31 02:09:50;;;;;;;;;;;10.20;89.80;;;;;;5011491;28;20149;-63
2023/03/31 02:12:20;;;;;;;0.00;0.00;;;10.20;89.90;;;;;;5011625;28;19929;-63
2023/03/31 02:14:49;;;;;;;0.75;0.75;;;10.20;89.90;;;;;;5011254;28;20052;-64
2023/03/31 02:17:18;;;;;;;0.00;0.00;;;10.20;89.80;;;;;;4993625;28;20038;-63
2023/03/31 02:19:48;;;;;;;0.00;0.00;;;10.20;89.80;;;;;;5010859;28;20045;-63
2023/03/31 02:22:18;;;;;;;0.20;0.20;;;10.20;89.70;;;;;;5011788;28;20064;-63
2023/03/31 02:24:46;;;;;;;0.00;0.00;;;10.20;89.70;;;;;;5011524;28;20506;-64
2023/03/31 02:27:19;;;;;;;0.00;0.00;;;10.20;89.60;;;;;;5011255;28;20064;-64
2023/03/31 02:29:45;;;;;;;0.00;0.00;;;10.20;89.60;;;;;;5011143;28;20082;-63
2023/03/31 02:32:28;;;;;;;0.00;0.00;;;10.10;89.50;;;;;;5011304;28;20537;-63
2023/03/31 02:34:54;;;;;;;0.00;0.00;;;10.20;89.40;;;;;;5011466;28;20050;-63
2023/03/31 02:37:20;;;;;;;0.00;0.00;;;10.10;89.40;;;;;;5011078;28;20038;-63
2023/03/31 02:39:49;;;;;;;0.00;0.00;;;10.10;89.50;;;;;;5010666;28;20049;-63
2023/03/31 02:42:15;;;;;;;0.00;0.00;;;10.10;89.40;;;;;;5011265;28;20467;-63
2023/03/31 02:44:41;;;;;;;0.00;0.00;;;10.10;89.50;;;;;;5010889;28;20129;-63
2023/03/31 02:47:10;;;;;;;0.00;0.00;;;10.10;89.40;;;;;;5009372;28;20099;-63
2023/03/31 02:49:42;;;;;;;0.00;0.00;;;10.10;89.50;;;;;;5010776;28;20116;-63
2023/03/31 02:52:17;;;;;;;0.00;0.00;;;10.10;89.40;;;;;;5010295;28;20045;-63
2023/03/31 02:55:21;;;;;;;0.00;0.00;;;10.10;89.50;;;;;;5010994;28;20410;-63
2023/03/31 02:58:05;;;;;;;0.17;0.17;;;10.10;89.40;;;;;;5009985;28;20085;-63
2023/03/31 03:00:52;;;;;;;0.00;0.00;;;10.10;89.40;;;;;;4976737;28;20050;-63
2023/03/31 03:03:32;;;;;;;0.00;0.00;;;10.10;89.50;;;;;;5011048;28;20046;-63
2023/03/31 03:06:13;;;;;;;0.00;0.00;;;10.10;89.50;;;;;;5010398;28;20042;-63
2023/03/31 03:09:05;;;;;;;0.00;0.00;;;10.10;89.40;;;;;;5010688;28;20128;-63
2023/03/31 03:11:48;;;;;;;0.00;0.00;;;10.10;89.50;;;;;;5010989;28;20525;-63
2023/03/31 03:14:19;;;;;;;0.40;0.40;;;10.10;89.60;;;;;;5010503;28;20451;-63
2023/03/31 03:16:52;;;;;;;0.00;0.00;;;10.10;89.50;;;;;;5010690;28;20092;-63
2023/03/31 03:19:20;;;;;;;0.00;0.00;;;10.10;89.50;;;;;;5010168;28;20048;-63
2023/03/31 03:21:47;;;;;;;0.00;0.00;;;10.10;89.50;;;;;;5010766;28;20054;-63
2023/03/31 03:24:15;;;;;;;0.00;0.00;;;10.10;89.60;;;;;;5010323;28;20041;-63
2023/03/31 03:26:41;;;;;;;0.00;0.00;;;10.10;89.60;;;;;;5009919;28;20521;-63
2023/03/31 03:29:07;;;;;;;0.00;0.00;;;10.10;89.80;;;;;;5010316;28;20050;-63
2023/03/31 03:31:33;;;;;;;0.00;0.00;;;10.10;89.90;;;;;;5010224;28;20038;-64
2023/03/31 03:33:59;;;;;;;0.20;0.20;;;10.10;89.90;;;;;;5009959;28;20553;-63
2023/03/31 03:36:25;;;;;;;0.00;0.00;;;10.10;90.00;;;;;;5010428;28;20549;-64
2023/03/31 03:38:50;;;;;;;1.02;0.73;;;10.10;90.00;;;;;;5009637;28;20045;-63
2023/03/31 03:41:16;;;;;;;0.00;0.00;;;10.10;90.10;;;;;;5010331;28;20080;-63
2023/03/31 03:43:41;;;;;;;0.00;0.00;;;10.10;90.20;;;;;;5010191;28;20037;-63
2023/03/31 03:46:07;;;;;;;0.00;0.00;;;10.10;90.30;;;;;;5009490;28;20049;-63
2023/03/31 03:48:33;;;;;;;0.00;0.00;;;10.10;90.20;;;;;;4991545;28;20079;-63
2023/03/31 03:51:00;;;;;;;0.00;0.00;;;10.10;90.20;;;;;;5009851;28;20050;-63
2023/03/31 03:53:25;;;;;;;0.00;0.00;;;10.20;90.40;;;;;;5009786;28;20034;-63
2023/03/31 03:55:51;;;;;;;0.00;0.00;;;10.20;90.50;;;;;;5009769;28;20046;-63
2023/03/31 03:58:18;;;;;;;0.00;0.00;;;10.20;90.50;;;;;;5009802;28;20490;-63
2023/03/31 04:00:44;;;;;;;0.10;0.10;;;10.20;90.70;;;;;;5009886;28;20046;-63
2023/03/31 04:03:11;;;;;;;0.00;0.00;;;10.20;90.90;;;;;;5009303;28;20553;-64
2023/03/31 04:05:36;;;;;;;0.00;0.00;;;10.20;90.90;;;;;;5009556;28;20045;-63
2023/03/31 04:08:03;;;;;;;0.00;0.00;;;10.30;91.00;;;;;;5009444;28;20069;-63
2023/03/31 04:10:29;;;;;;;0.00;0.00;;;10.20;90.90;;;;;;5009585;28;20088;-63
2023/03/31 04:12:54;;;;;;;0.00;0.00;;;10.30;90.90;;;;;;5009465;28;20433;-63
2023/03/31 04:15:20;;;;;;;0.00;0.00;;;10.30;91.10;;;;;;4991601;28;20073;-63
2023/03/31 04:17:49;;;;;;;0.00;0.00;;;10.30;91.10;;;;;;5009150;28;20050;-63
2023/03/31 04:20:15;;;;;;;0.00;0.00;;;10.30;91.10;;;;;;5009782;28;20057;-63
2023/03/31 04:22:41;;;;;;;0.00;0.00;;;10.30;91.00;;;;;;5009082;28;20046;-64
2023/03/31 04:25:09;;;;;;;0.00;0.00;;;10.20;91.00;;;;;;4991088;28;20053;-63
2023/03/31 04:27:35;;;;;;;0.00;0.00;;;10.20;91.00;;;;;;5009383;28;20080;-64
2023/03/31 04:30:00;;;;;;;0.00;0.00;;;10.20;91.00;;;;;;5008705;28;20054;-63
2023/03/31 04:32:27;;;;;;;0.03;0.03;;;10.20;91.20;;;;;;5009190;28;20137;-63
2023/03/31 04:35:01;;;;;;;0.00;0.00;;;10.20;91.30;;;;;;5009666;28;20042;-63
2023/03/31 04:37:33;;;;;;;0.00;0.00;;;10.30;91.50;;;;;;5009432;28;20048;-63
2023/03/31 04:40:09;;;;;;;0.10;0.10;;;10.20;91.50;;;;;;5009261;28;20042;-63
2023/03/31 04:42:35;;;;;;;0.00;0.00;;;10.20;91.50;;;;;;5009113;28;20045;-63
2023/03/31 04:45:01;;;;;;;0.00;0.00;;;10.20;91.50;;;;;;5007904;28;20060;-63
2023/03/31 04:47:27;;;;;;;0.00;0.00;;;10.20;91.50;;;;;;5008794;28;20050;-63
2023/03/31 04:49:52;;;;;;;0.00;0.00;;;10.20;91.50;;;;;;5008400;28;20549;-62
2023/03/31 04:52:18;;;;;;;0.00;0.00;;;10.30;91.60;;;;;;5009157;28;20053;-64
2023/03/31 04:54:43;;;;;;;0.00;0.00;;;10.20;91.60;;;;;;5007365;28;20033;-63
2023/03/31 04:57:10;;;;;;;0.10;0.10;;;10.20;91.70;;;;;;5008928;28;20758;-63
2023/03/31 04:59:35;;;;;;;0.00;0.00;;;10.20;91.60;;;;;;5009206;28;20050;-63
2023/03/31 05:02:01;;;;;;;0.00;0.00;;;10.20;91.80;;;;;;5008310;28;20068;-64
2023/03/31 05:04:26;;;;;;;0.00;0.00;;;10.20;91.90;;;;;;5008874;28;20100;-63
2023/03/31 05:06:52;;;;;;;0.00;0.00;;;10.20;91.90;;;;;;5008731;28;20088;-63
2023/03/31 05:09:19;;;;;;;1.95;1.85;;;10.20;92.00;;;;;;5008900;28;20140;-63
2023/03/31 05:11:44;;;;;;;0.00;0.00;;;10.20;92.00;;;;;;5008734;28;20077;-63
2023/03/31 05:14:10;;;;;;;0.00;0.00;;;10.20;92.00;;;;;;4989400;28;20070;-63
2023/03/31 05:16:36;;;;;;;0.00;0.00;;;10.20;92.00;;;;;;5002115;28;20049;-64
2023/03/31 05:19:02;;;;;;;0.00;0.00;;;10.20;92.10;;;;;;4984119;28;20046;-63
2023/03/31 05:21:30;;;;;;;0.00;0.00;;;10.20;92.10;;;;;;4991325;28;20034;-64
2023/03/31 05:23:56;;;;;;;0.55;0.55;;;10.20;92.10;;;;;;4999778;28;20072;-64
2023/03/31 05:26:24;;;;;;;0.00;0.00;;;10.10;92.10;;;;;;4995008;28;20045;-64
2023/03/31 05:28:53;;;;;;;0.00;0.00;;;10.20;92.20;;;;;;5001882;28;20038;-64
2023/03/31 05:31:19;;;;;;;0.00;0.00;;;10.20;92.30;;;;;;4996171;28;20085;-63
2023/03/31 05:33:45;;;;;;;0.00;0.00;;;10.20;92.30;;;;;;4977090;28;20133;-63
2023/03/31 05:36:13;;;;;;;0.00;0.00;;;10.20;92.30;;;;;;5004550;28;20116;-62
2023/03/31 05:38:40;;;;;;;0.00;0.00;;;10.20;92.20;;;;;;4999552;28;20994;-63
2023/03/31 05:41:08;;;;;;;0.00;0.00;;;10.20;92.30;;;;;;5001109;28;20755;-64
2023/03/31 05:43:34;;;;;;;0.03;0.03;;;10.20;92.20;;;;;;4985335;28;20517;-63
2023/03/31 05:46:00;;;;;;;0.00;0.00;;;10.20;92.30;;;;;;5002313;28;20046;-63
2023/03/31 05:48:26;;;;;;;0.03;0.03;;;10.20;92.30;;;;;;4984677;28;20082;-64
2023/03/31 05:50:56;;;;;;;0.00;0.00;;;10.20;92.30;;;;;;5009129;28;20046;-66
2023/03/31 05:53:22;;;;;;;0.00;0.00;;;10.80;94.10;;;;;;5000402;28;20126;-66
2023/03/31 05:55:48;;;;;;;6.53;0.80;;;11.10;93.30;;;;;;5007989;28;20057;-63
2023/03/31 05:58:14;;;;;;;0.00;0.00;;;11.20;91.80;;;;;;5001839;28;20046;-63
2023/03/31 06:00:39;;;;;;;0.00;0.00;;;11.10;91.60;;;;;;4996550;28;20042;-63
2023/03/31 06:03:06;;;;;;;0.00;0.00;;;11.00;91.40;;;;;;5007576;28;20049;-63
2023/03/31 06:05:33;;;;;;;0.00;0.00;;;10.90;91.30;;;;;;4981421;28;20054;-64
2023/03/31 06:07:59;;;;;;;0.65;0.65;;;10.70;91.00;;;;;;4992834;28;20081;-63
2023/03/31 06:10:25;;;;;;;0.00;0.00;;;10.60;91.30;;;;;;4999550;28;20123;-63
2023/03/31 06:12:50;;;;;;;0.10;0.10;;;10.60;91.50;;;;;;4980574;28;20046;-63
2023/03/31 06:15:16;;;;;;;0.00;0.00;;;10.50;91.50;;;;;;4998533;28;20066;-63
2023/03/31 06:17:41;;;;;;;0.00;0.00;;;10.50;91.60;;;;;;4997757;28;20045;-63
2023/03/31 06:20:08;;;;;;;0.00;0.00;;;10.50;91.80;;;;;;4998267;28;20042;-63
2023/03/31 06:22:33;;;;;;;0.00;0.00;;;10.50;91.80;;;;;;5001097;28;20057;-63
2023/03/31 06:24:59;;;;;;;0.00;0.00;;;10.40;91.70;;;;;;5000209;28;20038;-63
2023/03/31 06:27:25;;;;;;;0.00;0.00;;;10.40;91.80;;;;;;5000099;28;20053;-62
2023/03/31 06:29:50;;;;;;;0.00;0.00;;;10.50;92.00;;;;;;5000420;28;20410;-63
2023/03/31 06:32:16;;;;;;;0.00;0.00;;;10.40;92.00;;;;;;5000278;28;20050;-63
2023/03/31 06:34:41;;;;;;;9.30;1.80;;;10.40;91.90;;;;;;5002322;28;20426;-63
2023/03/31 06:37:07;;;;;;;0.00;0.00;;;10.40;92.00;;;;;;5000762;28;20401;-62
2023/03/31 06:39:32;;;;;;;0.05;0.05;;;10.40;92.00;;;;;;5000114;28;20219;-63
2023/03/31 06:41:58;;;;;;;0.32;0.32;;;10.30;92.10;;;;;;4983406;28;20147;-64
2023/03/31 06:44:23;;;;;;;0.00;0.00;;;10.30;92.20;;;;;;4996618;28;20041;-63
2023/03/31 06:46:49;;;;;;;0.00;0.00;;;10.30;92.30;;;;;;4999342;28;20057;-63
2023/03/31 06:49:15;;;;;;;0.00;0.00;;;10.20;92.40;;;;;;4999097;28;20089;-63
2023/03/31 06:51:40;;;;;;;0.00;0.00;;;10.30;92.40;;;;;;4999008;28;20042;-64
2023/03/31 06:54:06;;;;;;;0.00;0.00;;;10.30;92.40;;;;;;5000538;28;20402;-63
2023/03/31 06:56:32;;;;;;;0.00;0.00;;;10.30;92.40;;;;;;4982847;28;20410;-63
2023/03/31 06:58:57;;;;;;;0.00;0.00;;;10.20;92.40;;;;;;4981231;28;20053;-63
2023/03/31 07:01:23;;;;;;;0.00;0.00;;;10.20;92.40;;;;;;5000572;28;20042;-64
2023/03/31 07:03:48;;;;;;;0.00;0.00;;;10.20;92.50;;;;;;5000812;28;20042;-63
2023/03/31 07:06:14;;;;;;;0.00;0.00;;;10.20;92.50;;;;;;4996109;28;20052;-63
2023/03/31 07:08:39;;;;;;;0.00;0.00;;;10.10;92.50;;;;;;4999671;28;20429;-62
2023/03/31 07:11:05;;;;;;;0.00;0.00;;;10.10;92.50;;;;;;4999483;28;20093;-64
2023/03/31 07:13:31;;;;;;;0.00;0.00;;;10.10;92.40;;;;;;5000852;28;20537;-62
2023/03/31 07:15:56;;;;;;;0.00;0.00;;;10.10;92.40;;;;;;4998610;28;20596;-62
2023/03/31 07:18:24;;;;;;;0.00;0.00;;;10.20;92.50;;;;;;4998766;28;20034;-63
2023/03/31 07:20:51;;;;;;;0.00;0.00;;;10.10;92.50;;;;;;4996816;28;20511;-63
2023/03/31 07:23:17;;;;;;;0.00;0.00;;;10.20;92.50;;;;;;4998537;28;20497;-64
2023/03/31 07:25:43;;;;;;;0.00;0.00;;;10.10;92.40;;;;;;4998551;28;20094;-63
2023/03/31 07:28:08;;;;;;;0.00;0.00;;;10.20;92.40;;;;;;4998637;28;20049;-63
2023/03/31 07:30:34;;;;;;;0.10;0.10;;;10.20;92.30;;;;;;4998399;28;20050;-63
2023/03/31 07:33:00;;;;;;;0.00;0.00;;;10.20;92.50;;;;;;4999310;28;20081;-63
2023/03/31 07:35:26;;;;;;;0.00;0.00;;;10.10;92.50;;;;;;4997709;28;20073;-65
2023/03/31 07:37:51;;;;;;;0.00;0.00;;;10.10;92.60;;;;;;4996099;28;20038;-66
2023/03/31 07:40:23;;;;;;;0.00;0.00;;;10.10;92.70;;;;;;4998097;28;20038;-65
2023/03/31 07:42:50;;;;;;;;;;;10.10;92.80;;;;;;5000624;28;20051;-64
2023/03/31 07:45:18;;;;;;;0.00;0.00;;;10.20;92.80;;;;;;4997635;28;20604;-64
2023/03/31 07:47:45;;;;;;;0.00;0.00;;;10.20;92.70;;;;;;4996741;28;20528;-64
2023/03/31 07:50:11;;;;;;;0.00;0.00;;;10.20;92.80;;;;;;4996248;28;20501;-64
2023/03/31 07:52:37;;;;;;;0.00;0.00;;;10.30;92.90;;;;;;4998912;28;20065;-64
2023/03/31 07:55:03;;;;;;;0.00;0.00;;;10.20;92.90;;;;;;4998999;28;20046;-63
2023/03/31 07:57:28;;;;;;;0.00;0.00;;;10.30;93.00;;;;;;4997888;28;20046;-65
2023/03/31 07:59:54;;;;;;;0.00;0.00;;;10.30;93.10;;;;;;4992707;28;20406;-64
2023/03/31 08:02:20;;;;;;;0.00;0.00;;;10.30;93.10;;;;;;4994066;28;20832;-64
2023/03/31 08:04:46;;;;;;;0.00;0.00;;;10.40;93.10;;;;;;4998025;28;20445;-64
2023/03/31 08:07:14;;;;;;;0.00;0.00;;;10.40;93.10;;;;;;4998281;28;20054;-64
2023/03/31 08:09:41;;;;;;;0.00;0.00;;;10.40;93.10;;;;;;4999164;28;20034;-64
2023/03/31 08:12:07;;;;;;;0.00;0.00;;;10.40;93.10;;;;;;4997397;28;20066;-64
2023/03/31 08:14:33;;;;;;;0.00;0.00;;;10.50;93.30;;;;;;4982588;28;21586;-64
2023/03/31 08:16:59;;;;;;;0.00;0.00;;;10.50;93.30;;;;;;4997609;28;20044;-64
2023/03/31 08:19:25;;;;;;;0.00;0.00;;;10.50;93.30;;;;;;4995566;28;20126;-65
2023/03/31 08:21:51;;;;;;;0.00;0.00;;;10.60;93.30;;;;;;4998683;28;20030;-64
2023/03/31 08:24:17;;;;;;;0.00;0.00;;;10.60;93.30;;;;;;4997752;28;20128;-64
2023/03/31 08:26:43;;;;;;;0.00;0.00;;;10.70;93.20;;;;;;4998447;28;20057;-64
2023/03/31 08:29:08;;;;;;;0.00;0.00;;;10.70;93.20;;;;;;4997070;28;20041;-64
2023/03/31 08:31:34;;;;;;;0.00;0.00;;;10.70;93.20;;;;;;4963426;28;20101;-64
2023/03/31 08:34:01;;;;;;;0.00;0.00;;;10.80;93.20;;;;;;4998100;28;20717;-65
2023/03/31 08:36:27;;;;;;;0.00;0.00;;;10.80;93.10;;;;;;5006204;28;20766;-65
2023/03/31 08:38:53;;;;;;;0.00;0.00;;;10.90;93.00;;;;;;5007017;28;20042;-64
2023/03/31 08:41:49;;;;;;;0.00;0.00;;;10.90;93.00;;;;;;5006840;28;20042;-64
2023/03/31 08:44:33;;;;;;;0.00;0.00;;;11.00;92.90;;;;;;5006250;28;20822;-64
2023/03/31 08:47:02;;;;;;;0.08;0.08;;;11.00;92.90;;;;;;5001914;28;20084;-64
2023/03/31 08:49:36;;;;;;;0.00;0.00;;;11.10;92.80;;;;;;5008860;28;20057;-64
2023/03/31 08:52:06;;;;;;;0.20;0.20;;;11.10;92.80;;;;;;5005212;28;20030;-64
2023/03/31 08:54:41;;;;;;;0.00;0.00;;;11.10;92.70;;;;;;5004337;28;20041;-64
2023/03/31 08:57:18;;;;;;;0.00;0.00;;;11.10;92.60;;;;;;5008188;28;20038;-63
2023/03/31 08:59:45;;;;;;;0.00;0.00;;;11.20;92.70;;;;;;5008826;28;20042;-64
2023/03/31 09:02:28;;;;;;;0.00;0.00;;;11.20;92.60;;;;;;5008226;28;20502;-64
2023/03/31 09:05:17;;;;;;;0.00;0.00;;;11.20;92.60;;;;;;5006819;28;20050;-64
2023/03/31 09:08:06;;;;;;;0.22;0.20;;;11.30;92.50;;;;;;4990643;28;20057;-64
2023/03/31 09:10:57;;;;;;;0.00;0.00;;;11.30;92.60;;;;;;5007314;28;20041;-64
2023/03/31 09:14:00;;;;;;;0.00;0.00;;;11.40;92.50;;;;;;5011856;28;20034;-64
2023/03/31 09:16:43;;;;;;;0.00;0.00;;;11.40;92.40;;;;;;5012509;28;20494;-64
2023/03/31 09:19:32;;;;;;;0.00;0.00;;;11.50;92.30;;;;;;5011944;28;20044;-63
2023/03/31 09:22:00;;;;;;;0.00;0.00;;;11.50;92.10;;;;;;5011425;28;20037;-64
2023/03/31 09:24:42;;;;;;;0.00;0.00;;;11.50;92.10;;;;;;5011872;28;20045;-64
2023/03/31 09:27:11;;;;;;;0.00;0.00;;;11.40;92.00;;;;;;5011792;28;20446;-65
2023/03/31 09:30:16;;;;;;;0.00;0.00;;;11.40;92.00;;;;;;5010550;28;20045;-64
2023/03/31 09:32:44;;;;;;;0.00;0.00;;;11.40;92.00;;;;;;5007784;28;20054;-64
2023/03/31 09:35:24;;;;;;;0.00;0.00;;;11.40;92.00;;;;;;5011799;28;20065;-64
2023/03/31 09:37:52;;;;;;;0.00;0.00;;;11.40;92.00;;;;;;5012126;28;20073;-64
2023/03/31 09:40:24;;;;;;;0.00;0.00;;;11.40;91.90;;;;;;5010843;28;20417;-64
2023/03/31 09:43:10;;;;;;;0.00;0.00;;;11.40;91.90;;;;;;4985869;28;20080;-65
2023/03/31 09:45:36;;;;;;;0.32;0.30;;;11.50;91.90;;;;;;4983657;28;20411;-64
2023/03/31 09:48:09;;;;;;;1.05;0.98;;;11.50;91.90;;;;;;4999102;28;20043;-65
2023/03/31 09:50:44;;;;;;;0.00;0.00;;;11.50;91.80;;;;;;5002064;28;21198;-65
2023/03/31 09:53:30;;;;;;;0.00;0.00;;;11.50;91.80;;;;;;5000851;28;20046;-64
2023/03/31 09:56:01;;;;;;;0.00;0.00;;;11.50;91.80;;;;;;4983615;28;20038;-65
2023/03/31 09:58:27;;;;;;;0.00;0.00;;;11.50;91.70;;;;;;5000507;28;20038;-64
2023/03/31 10:01:13;;;;;;;0.00;0.00;;;11.50;91.80;;;;;;5000820;28;20153;-64
2023/03/31 10:03:52;;;;;;;0.00;0.00;;;11.60;91.70;;;;;;5001594;28;20042;-65
2023/03/31 10:06:19;;;;;;;0.00;0.00;;;11.60;91.70;;;;;;4983547;28;20061;-64
2023/03/31 10:08:56;;;;;;;0.00;0.00;;;11.60;91.80;;;;;;4999982;28;20038;-65
2023/03/31 10:11:22;;;;;;;0.00;0.00;;;11.60;91.70;;;;;;5000855;28;20054;-64
2023/03/31 10:13:57;;;;;;;0.17;0.17;;;11.60;91.70;;;;;;5000090;28;20459;-64
2023/03/31 10:16:42;;;;;;;0.00;0.00;;;11.70;91.90;;;;;;4999109;28;20619;-64
2023/03/31 10:19:25;;;;;;;0.00;0.00;;;11.70;91.90;;;;;;5000031;28;20141;-64
2023/03/31 10:22:03;;;;;;;0.30;0.30;;;11.80;92.00;;;;;;5002002;28;20601;-64
2023/03/31 10:24:41;;;;;;;0.00;0.00;;;11.90;91.90;;;;;;4999534;28;20264;-64
2023/03/31 10:27:27;;;;;;;0.50;0.35;;;12.00;91.80;;;;;;4999759;28;20088;-64
2023/03/31 10:30:07;;;;;;;0.10;0.10;;;12.10;91.80;;;;;;5007230;28;20038;-64
2023/03/31 10:32:39;;;;;;;0.00;0.00;;;12.10;91.50;;;;;;5010688;28;20054;-63
2023/03/31 10:35:14;;;;;;;0.00;0.00;;;12.10;91.40;;;;;;5010239;28;20168;-64
2023/03/31 10:37:40;;;;;;;0.00;0.00;;;12.20;91.40;;;;;;5010216;28;20046;-64
2023/03/31 10:40:22;;;;;;;0.20;0.20;;;12.30;91.30;;;;;;5010978;28;20046;-64
2023/03/31 10:42:59;;;;;;;0.00;0.00;;;12.40;91.30;;;;;;4992933;28;20054;-64
2023/03/31 10:45:27;;;;;;;0.00;0.00;;;12.50;91.20;;;;;;5009388;28;20052;-64
2023/03/31 10:47:55;;;;;;;0.00;0.00;;;12.60;91.00;;;;;;4992771;28;20042;-64
2023/03/31 10:50:28;;;;;;;0.00;0.00;;;12.60;90.60;;;;;;5010043;28;20041;-64
2023/03/31 10:53:13;;;;;;;0.00;0.00;;;12.70;90.60;;;;;;5010069;28;20072;-64
2023/03/31 10:56:16;;;;;;;0.00;0.00;;;12.70;90.20;;;;;;5010537;28;20042;-63
2023/03/31 10:59:18;;;;;;;0.15;0.15;;;12.80;89.70;;;;;;5006289;28;20042;-64
2023/03/31 11:01:58;;;;;;;0.65;0.55;;;12.90;89.50;;;;;;4999189;28;20033;-64
2023/03/31 11:04:29;;;;;;;0.00;0.00;;;12.90;89.10;;;;;;5007916;28;20414;-64
2023/03/31 11:07:32;;;;;;;0.00;0.00;;;13.10;88.80;;;;;;5010495;28;20054;-64
2023/03/31 11:10:12;;;;;;;0.00;0.00;;;13.10;88.30;;;;;;4999771;28;20054;-64
2023/03/31 11:12:50;;;;;;;0.00;0.00;;;13.10;87.50;;;;;;4991263;28;20064;-63
2023/03/31 11:15:33;;;;;;;0.00;0.00;;;13.10;87.40;;;;;;5002977;28;20602;-64
2023/03/31 11:18:26;;;;;;;0.10;0.10;;;13.10;87.00;;;;;;4994516;28;20573;-64
2023/03/31 11:21:00;;;;;;;0.00;0.00;;;13.20;87.00;;;;;;4996623;28;20405;-64
2023/03/31 11:23:42;;;;;;;0.00;0.00;;;13.20;87.00;;;;;;5009846;28;20037;-65
2023/03/31 11:26:16;;;;;;;;;;;13.20;86.60;;;;;;5005670;28;20061;-64
2023/03/31 11:29:15;;;;;;;0.00;0.00;;;13.20;86.80;;;;;;5002935;28;20020;-61
2023/03/31 11:32:02;;;;;;;0.00;0.00;;;13.10;87.10;;;;;;5002233;28;20065;-64
2023/03/31 11:34:40;;;;;;;1.60;1.00;;;13.20;87.30;;;;;;5009310;28;20763;-64
2023/03/31 11:37:40;;;;;;;0.00;0.00;;;13.20;87.30;;;;;;5005316;28;20038;-64
2023/03/31 11:40:34;;;;;;;0.00;0.00;;;13.10;87.30;;;;;;5006929;28;20116;-63
2023/03/31 11:43:05;;;;;;;1.08;0.70;;;13.10;87.60;;;;;;4978070;28;20050;-64
2023/03/31 11:45:36;;;;;;;0.00;0.00;;;13.20;87.60;;;;;;5001699;28;20066;-63
2023/03/31 11:48:26;;;;;;;0.00;0.00;;;13.10;87.30;;;;;;5005986;28;20449;-63
2023/03/31 11:50:52;;;;;;;0.00;0.00;;;13.00;87.40;;;;;;4990595;28;20052;-64
2023/03/31 11:53:26;;;;;;;0.60;0.40;;;12.90;87.40;;;;;;4989934;28;20089;-64
2023/03/31 11:55:54;;;;;;;0.00;0.00;;;12.80;87.60;;;;;;5008078;28;20112;-64
2023/03/31 11:58:36;;;;;;;0.00;0.00;;;12.80;87.80;;;;;;5008569;28;20054;-64
2023/03/31 12:01:20;;;;;;;1.33;1.23;;;12.80;87.90;;;;;;4985454;28;20053;-62
2023/03/31 12:04:10;;;;;;;0.40;0.28;;;12.60;88.30;;;;;;5007248;28;20081;-62
2023/03/31 12:06:41;;;;;;;0.00;0.00;;;12.60;88.40;;;;;;5004852;28;20752;-62
2023/03/31 12:09:16;;;;;;;0.00;0.00;;;12.70;88.60;;;;;;5005955;28;20117;-62
2023/03/31 12:12:04;;;;;;;0.00;0.00;;;12.70;88.80;;;;;;4999289;28;20426;-63
2023/03/31 12:14:34;;;;;;;0.00;0.00;;;12.80;88.90;;;;;;5005793;28;20046;-61
2023/03/31 12:17:17;;;;;;;0.00;0.00;;;12.90;89.10;;;;;;5003662;28;20465;-62
2023/03/31 12:20:06;;;;;;;0.00;0.00;;;12.90;89.00;;;;;;5004663;28;20057;-61
2023/03/31 12:22:45;;;;;;;0.00;0.00;;;13.00;89.10;;;;;;4996780;28;20782;-62
2023/03/31 12:25:18;;;;;;;0.00;0.00;;;13.00;89.10;;;;;;5004762;28;20080;-62
2023/03/31 12:27:48;;;;;;;0.00;0.00;;;13.10;89.20;;;;;;4986146;28;20050;-62
2023/03/31 12:30:30;;;;;;;0.00;0.00;;;13.20;89.20;;;;;;4998929;28;20046;-63
2023/03/31 12:33:01;;;;;;;0.00;0.00;;;13.20;89.20;;;;;;5001927;28;20061;-63
2023/03/31 12:35:47;;;;;;;0.35;0.35;;;13.10;88.90;;;;;;5006707;28;20093;-63
2023/03/31 12:38:24;;;;;;;0.00;0.00;;;13.10;88.80;;;;;;4989130;28;20050;-62
2023/03/31 12:41:30;;;;;;;0.00;0.00;;;13.10;88.70;;;;;;5006956;28;20045;-63
2023/03/31 12:44:33;;;;;;;0.00;0.00;;;13.10;88.40;;;;;;4981944;28;20507;-62
2023/03/31 12:47:23;;;;;;;0.00;0.00;;;13.00;88.20;;;;;;4952476;28;20050;-63
2023/03/31 12:50:02;;;;;;;0.00;0.00;;;13.00;87.60;;;;;;4988937;28;20053;-62
2023/03/31 12:52:37;;;;;;;0.00;0.00;;;13.00;87.30;;;;;;4981528;28;20494;-62
2023/03/31 12:55:20;;;;;;;0.00;0.00;;;13.00;86.90;;;;;;5004167;28;20922;-63
2023/03/31 12:57:46;;;;;;;0.25;0.25;;;12.80;85.00;;;;;;5003964;28;20117;-63
2023/03/31 13:00:23;;;;;;;0.00;0.00;;;12.80;84.50;;;;;;5005507;28;20121;-62
2023/03/31 13:02:49;;;;;;;0.00;0.00;;;12.80;84.10;;;;;;5003757;28;20045;-63
2023/03/31 13:05:46;;;;;;;0.00;0.00;;;12.80;84.80;;;;;;5003452;28;20042;-63
2023/03/31 13:08:51;;;;;;;0.00;0.00;;;12.80;84.90;;;;;;4984990;28;20062;-63
2023/03/31 13:11:39;;;;;;;0.00;0.00;;;12.90;85.30;;;;;;4985596;28;20514;-63
2023/03/31 13:14:30;;;;;;;0.00;0.00;;;13.00;85.30;;;;;;5004414;28;20180;-63
2023/03/31 13:17:13;;;;;;;0.00;0.00;;;13.10;85.30;;;;;;5003116;28;20469;-63